KPOU/POU METAR and TAF weather

Enter ICAO airport designator
Station Type Date Time Source
KPOU METAR 2019/08/23 16:53 UTC NOAA

KPOU 231653Z 01008KT 10SM CLR 23/13 A2999 RMK AO2 SLP151 T02280128


Station Type Date Time Source
KPOU Decoded METAR 2019/08/23 16:53 UTC NOAA

Station name not available
Aug 23, 2019 - 12:53 PM EDT / 2019.08.23 1653 UTC
Wind: from the N (010 degrees) at 9 MPH (8 KT):0
Visibility: 10 mile(s):0
Sky conditions: clear
Temperature: 73.0 F (22.8 C)
Dew Point: 55.0 F (12.8 C)
Relative Humidity: 53%
Pressure (altimeter): 29.99 in. Hg (1015 hPa)
ob: KPOU 231653Z 01008KT 10SM CLR 23/13 A2999 RMK AO2 SLP151 T02280128
cycle: 17

Station Type Date Time Source
KPOU TAF 2019/08/23 18:33 UTC NOAA

TAF KPOU 231731Z 2318/2418 36006KT P6SM BKN120
FM240000 01003KT P6SM FEW050
FM241400 01006KT P6SM FEW050

Example: see airport list